sensor_id;sensor_type;location;lat;lon;timestamp;P1;durP1;ratioP1;P2;durP2;ratioP2
25479;SDS011;13393;49.378;8.686;2023-12-28T00:01:06;7.40;;;5.50;;
25479;SDS011;13393;49.378;8.686;2023-12-28T00:03:32;11.93;;;6.75;;
25479;SDS011;13393;49.378;8.686;2023-12-28T00:06:00;7.28;;;5.40;;
25479;SDS011;13393;49.378;8.686;2023-12-28T00:08:29;9.20;;;5.35;;
25479;SDS011;13393;49.378;8.686;2023-12-28T00:10:57;11.80;;;6.18;;
25479;SDS011;13393;49.378;8.686;2023-12-28T00:13:24;12.05;;;6.47;;
25479;SDS011;13393;49.378;8.686;2023-12-28T00:15:50;10.65;;;6.63;;
25479;SDS011;13393;49.378;8.686;2023-12-28T00:18:18;6.95;;;5.45;;
25479;SDS011;13393;49.378;8.686;2023-12-28T00:20:44;9.00;;;6.20;;
25479;SDS011;13393;49.378;8.686;2023-12-28T00:23:11;7.22;;;5.18;;
25479;SDS011;13393;49.378;8.686;2023-12-28T00:25:39;10.20;;;6.63;;
25479;SDS011;13393;49.378;8.686;2023-12-28T00:28:05;12.07;;;6.00;;
25479;SDS011;13393;49.378;8.686;2023-12-28T00:30:32;9.23;;;6.47;;
25479;SDS011;13393;49.378;8.686;2023-12-28T00:32:59;9.10;;;5.63;;
25479;SDS011;13393;49.378;8.686;2023-12-28T00:35:25;9.00;;;5.95;;
25479;SDS011;13393;49.378;8.686;2023-12-28T00:37:52;7.60;;;5.70;;
25479;SDS011;13393;49.378;8.686;2023-12-28T00:40:18;10.15;;;5.65;;
25479;SDS011;13393;49.378;8.686;2023-12-28T00:42:48;9.35;;;5.35;;
25479;SDS011;13393;49.378;8.686;2023-12-28T00:45:15;7.35;;;5.68;;
25479;SDS011;13393;49.378;8.686;2023-12-28T00:47:41;8.30;;;5.65;;
25479;SDS011;13393;49.378;8.686;2023-12-28T00:50:08;8.60;;;5.35;;
25479;SDS011;13393;49.378;8.686;2023-12-28T00:52:36;7.45;;;5.53;;
25479;SDS011;13393;49.378;8.686;2023-12-28T00:55:03;8.88;;;5.45;;
25479;SDS011;13393;49.378;8.686;2023-12-28T00:57:29;6.90;;;5.10;;
25479;SDS011;13393;49.378;8.686;2023-12-28T00:59:57;9.57;;;5.90;;
25479;SDS011;13393;49.378;8.686;2023-12-28T01:02:24;9.32;;;5.60;;
25479;SDS011;13393;49.378;8.686;2023-12-28T01:04:50;10.23;;;5.93;;
25479;SDS011;13393;49.378;8.686;2023-12-28T01:07:17;7.88;;;5.38;;
25479;SDS011;13393;49.378;8.686;2023-12-28T01:09:43;8.15;;;5.65;;
25479;SDS011;13393;49.378;8.686;2023-12-28T01:12:10;6.22;;;5.03;;
25479;SDS011;13393;49.378;8.686;2023-12-28T01:14:37;7.30;;;4.75;;
25479;SDS011;13393;49.378;8.686;2023-12-28T01:17:06;7.03;;;5.20;;
25479;SDS011;13393;49.378;8.686;2023-12-28T01:19:32;7.30;;;5.28;;
25479;SDS011;13393;49.378;8.686;2023-12-28T01:21:58;9.55;;;5.30;;
25479;SDS011;13393;49.378;8.686;2023-12-28T01:24:25;7.35;;;4.85;;
25479;SDS011;13393;49.378;8.686;2023-12-28T01:26:54;12.38;;;6.25;;
25479;SDS011;13393;49.378;8.686;2023-12-28T01:29:20;7.38;;;5.38;;
25479;SDS011;13393;49.378;8.686;2023-12-28T01:31:47;6.55;;;5.07;;
25479;SDS011;13393;49.378;8.686;2023-12-28T01:34:16;9.85;;;5.50;;
25479;SDS011;13393;49.378;8.686;2023-12-28T01:36:43;9.48;;;5.22;;
25479;SDS011;13393;49.378;8.686;2023-12-28T01:39:09;8.40;;;5.18;;
25479;SDS011;13393;49.378;8.686;2023-12-28T01:41:36;7.20;;;4.93;;
25479;SDS011;13393;49.378;8.686;2023-12-28T01:44:03;5.95;;;4.88;;
25479;SDS011;13393;49.378;8.686;2023-12-28T01:46:30;8.20;;;5.00;;
25479;SDS011;13393;49.378;8.686;2023-12-28T01:48:56;6.88;;;4.43;;
25479;SDS011;13393;49.378;8.686;2023-12-28T01:51:24;6.72;;;4.65;;
25479;SDS011;13393;49.378;8.686;2023-12-28T01:53:52;6.00;;;4.72;;
25479;SDS011;13393;49.378;8.686;2023-12-28T01:56:19;8.15;;;5.05;;
25479;SDS011;13393;49.378;8.686;2023-12-28T01:58:46;5.80;;;4.13;;
25479;SDS011;13393;49.378;8.686;2023-12-28T02:01:14;6.47;;;4.65;;
25479;SDS011;13393;49.378;8.686;2023-12-28T02:03:40;5.97;;;4.55;;
25479;SDS011;13393;49.378;8.686;2023-12-28T02:06:07;6.72;;;4.47;;
25479;SDS011;13393;49.378;8.686;2023-12-28T02:08:35;7.20;;;4.28;;
25479;SDS011;13393;49.378;8.686;2023-12-28T02:11:04;5.25;;;4.30;;
25479;SDS011;13393;49.378;8.686;2023-12-28T02:13:30;6.85;;;4.32;;
25479;SDS011;13393;49.378;8.686;2023-12-28T02:15:58;5.10;;;3.90;;
25479;SDS011;13393;49.378;8.686;2023-12-28T02:18:28;7.05;;;4.75;;
25479;SDS011;13393;49.378;8.686;2023-12-28T02:20:56;5.72;;;4.25;;
25479;SDS011;13393;49.378;8.686;2023-12-28T02:23:23;7.68;;;5.20;;
25479;SDS011;13393;49.378;8.686;2023-12-28T02:25:52;5.50;;;4.18;;
25479;SDS011;13393;49.378;8.686;2023-12-28T02:28:18;7.60;;;4.50;;
25479;SDS011;13393;49.378;8.686;2023-12-28T02:30:45;7.07;;;3.88;;
25479;SDS011;13393;49.378;8.686;2023-12-28T02:33:12;9.80;;;4.53;;
25479;SDS011;13393;49.378;8.686;2023-12-28T02:35:43;6.10;;;4.30;;
25479;SDS011;13393;49.378;8.686;2023-12-28T02:38:10;7.07;;;4.50;;
25479;SDS011;13393;49.378;8.686;2023-12-28T02:40:38;4.75;;;4.18;;
25479;SDS011;13393;49.378;8.686;2023-12-28T02:43:06;10.00;;;4.90;;
25479;SDS011;13393;49.378;8.686;2023-12-28T02:45:33;5.03;;;4.00;;
25479;SDS011;13393;49.378;8.686;2023-12-28T02:48:00;7.13;;;4.43;;
25479;SDS011;13393;49.378;8.686;2023-12-28T02:50:27;5.55;;;4.05;;
25479;SDS011;13393;49.378;8.686;2023-12-28T02:52:55;8.45;;;3.95;;
25479;SDS011;13393;49.378;8.686;2023-12-28T02:55:23;9.55;;;5.32;;
25479;SDS011;13393;49.378;8.686;2023-12-28T02:57:50;5.80;;;3.80;;
25479;SDS011;13393;49.378;8.686;2023-12-28T03:00:18;6.53;;;4.32;;
25479;SDS011;13393;49.378;8.686;2023-12-28T03:02:46;6.43;;;4.28;;
25479;SDS011;13393;49.378;8.686;2023-12-28T03:05:13;5.10;;;3.88;;
25479;SDS011;13393;49.378;8.686;2023-12-28T03:07:40;6.88;;;3.90;;
25479;SDS011;13393;49.378;8.686;2023-12-28T03:10:07;4.90;;;3.65;;
25479;SDS011;13393;49.378;8.686;2023-12-28T03:12:36;6.30;;;4.13;;
25479;SDS011;13393;49.378;8.686;2023-12-28T03:15:03;8.98;;;4.25;;
25479;SDS011;13393;49.378;8.686;2023-12-28T03:17:32;6.18;;;3.97;;
25479;SDS011;13393;49.378;8.686;2023-12-28T03:19:58;8.25;;;3.75;;
25479;SDS011;13393;49.378;8.686;2023-12-28T03:22:25;6.03;;;3.65;;
25479;SDS011;13393;49.378;8.686;2023-12-28T03:24:51;6.15;;;4.20;;
25479;SDS011;13393;49.378;8.686;2023-12-28T03:27:18;5.20;;;4.03;;
25479;SDS011;13393;49.378;8.686;2023-12-28T03:29:44;5.95;;;4.10;;
25479;SDS011;13393;49.378;8.686;2023-12-28T03:32:11;7.50;;;4.10;;
25479;SDS011;13393;49.378;8.686;2023-12-28T03:34:39;5.25;;;4.00;;
25479;SDS011;13393;49.378;8.686;2023-12-28T03:37:06;4.85;;;3.75;;
25479;SDS011;13393;49.378;8.686;2023-12-28T03:39:32;5.32;;;4.05;;
25479;SDS011;13393;49.378;8.686;2023-12-28T03:41:59;5.20;;;3.65;;
25479;SDS011;13393;49.378;8.686;2023-12-28T03:44:25;6.43;;;3.75;;
25479;SDS011;13393;49.378;8.686;2023-12-28T03:46:52;4.68;;;3.70;;
25479;SDS011;13393;49.378;8.686;2023-12-28T03:49:19;6.07;;;4.05;;
25479;SDS011;13393;49.378;8.686;2023-12-28T03:51:48;5.00;;;3.42;;
25479;SDS011;13393;49.378;8.686;2023-12-28T03:54:15;5.22;;;3.53;;
25479;SDS011;13393;49.378;8.686;2023-12-28T03:56:42;5.25;;;4.18;;
25479;SDS011;13393;49.378;8.686;2023-12-28T03:59:11;6.68;;;4.30;;
25479;SDS011;13393;49.378;8.686;2023-12-28T04:01:40;5.95;;;4.03;;
25479;SDS011;13393;49.378;8.686;2023-12-28T04:04:07;6.40;;;4.05;;
25479;SDS011;13393;49.378;8.686;2023-12-28T04:06:33;5.00;;;3.28;;
25479;SDS011;13393;49.378;8.686;2023-12-28T04:09:02;5.68;;;3.47;;
25479;SDS011;13393;49.378;8.686;2023-12-28T04:11:28;4.65;;;3.40;;
25479;SDS011;13393;49.378;8.686;2023-12-28T04:13:55;5.57;;;3.20;;
25479;SDS011;13393;49.378;8.686;2023-12-28T04:16:21;4.85;;;3.47;;
25479;SDS011;13393;49.378;8.686;2023-12-28T04:18:47;4.30;;;2.80;;
25479;SDS011;13393;49.378;8.686;2023-12-28T04:21:14;4.47;;;3.15;;
25479;SDS011;13393;49.378;8.686;2023-12-28T04:23:41;4.72;;;3.15;;
25479;SDS011;13393;49.378;8.686;2023-12-28T04:26:09;4.93;;;3.15;;
25479;SDS011;13393;49.378;8.686;2023-12-28T04:28:35;3.15;;;2.50;;
25479;SDS011;13393;49.378;8.686;2023-12-28T04:31:02;4.43;;;3.10;;
25479;SDS011;13393;49.378;8.686;2023-12-28T04:33:28;3.35;;;2.67;;
25479;SDS011;13393;49.378;8.686;2023-12-28T04:35:55;4.53;;;2.58;;
25479;SDS011;13393;49.378;8.686;2023-12-28T04:38:21;3.75;;;2.35;;
25479;SDS011;13393;49.378;8.686;2023-12-28T04:40:49;11.18;;;2.70;;
25479;SDS011;13393;49.378;8.686;2023-12-28T04:43:17;5.22;;;2.10;;
25479;SDS011;13393;49.378;8.686;2023-12-28T04:45:43;2.33;;;2.05;;
25479;SDS011;13393;49.378;8.686;2023-12-28T04:48:10;4.95;;;2.22;;
25479;SDS011;13393;49.378;8.686;2023-12-28T04:50:36;3.13;;;1.95;;
25479;SDS011;13393;49.378;8.686;2023-12-28T04:53:03;4.75;;;2.22;;
25479;SDS011;13393;49.378;8.686;2023-12-28T04:55:29;2.90;;;1.73;;
25479;SDS011;13393;49.378;8.686;2023-12-28T04:57:56;4.50;;;2.03;;
25479;SDS011;13393;49.378;8.686;2023-12-28T05:00:25;2.60;;;2.00;;
25479;SDS011;13393;49.378;8.686;2023-12-28T05:02:52;2.40;;;1.88;;
25479;SDS011;13393;49.378;8.686;2023-12-28T05:05:18;4.10;;;1.98;;
25479;SDS011;13393;49.378;8.686;2023-12-28T05:07:44;3.10;;;2.10;;
25479;SDS011;13393;49.378;8.686;2023-12-28T05:10:11;5.88;;;2.42;;
25479;SDS011;13393;49.378;8.686;2023-12-28T05:12:37;3.97;;;2.20;;
25479;SDS011;13393;49.378;8.686;2023-12-28T05:15:04;5.25;;;2.42;;
25479;SDS011;13393;49.378;8.686;2023-12-28T05:17:33;3.20;;;2.10;;
25479;SDS011;13393;49.378;8.686;2023-12-28T05:19:59;3.78;;;1.92;;
25479;SDS011;13393;49.378;8.686;2023-12-28T05:22:26;2.53;;;1.90;;
25479;SDS011;13393;49.378;8.686;2023-12-28T05:24:53;3.17;;;2.38;;
25479;SDS011;13393;49.378;8.686;2023-12-28T05:27:19;2.55;;;1.88;;
25479;SDS011;13393;49.378;8.686;2023-12-28T05:29:46;2.47;;;2.00;;
25479;SDS011;13393;49.378;8.686;2023-12-28T05:32:13;4.72;;;2.25;;
25479;SDS011;13393;49.378;8.686;2023-12-28T05:34:41;3.53;;;2.00;;
25479;SDS011;13393;49.378;8.686;2023-12-28T05:37:08;4.10;;;2.35;;
25479;SDS011;13393;49.378;8.686;2023-12-28T05:39:35;3.97;;;2.40;;
25479;SDS011;13393;49.378;8.686;2023-12-28T05:42:02;2.75;;;2.30;;
25479;SDS011;13393;49.378;8.686;2023-12-28T05:44:30;2.50;;;2.05;;
25479;SDS011;13393;49.378;8.686;2023-12-28T05:46:57;4.03;;;2.55;;
25479;SDS011;13393;49.378;8.686;2023-12-28T05:49:23;2.35;;;2.15;;
25479;SDS011;13393;49.378;8.686;2023-12-28T05:51:51;4.38;;;2.42;;
25479;SDS011;13393;49.378;8.686;2023-12-28T05:54:18;2.40;;;2.00;;
25479;SDS011;13393;49.378;8.686;2023-12-28T05:56:45;4.78;;;2.83;;
25479;SDS011;13393;49.378;8.686;2023-12-28T05:59:11;1.83;;;1.70;;
25479;SDS011;13393;49.378;8.686;2023-12-28T06:01:41;6.10;;;2.40;;
25479;SDS011;13393;49.378;8.686;2023-12-28T06:04:07;6.25;;;2.25;;
25479;SDS011;13393;49.378;8.686;2023-12-28T06:06:34;5.57;;;2.53;;
25479;SDS011;13393;49.378;8.686;2023-12-28T06:09:04;3.70;;;2.20;;
25479;SDS011;13393;49.378;8.686;2023-12-28T06:11:30;2.25;;;2.05;;
25479;SDS011;13393;49.378;8.686;2023-12-28T06:13:57;2.75;;;2.33;;
25479;SDS011;13393;49.378;8.686;2023-12-28T06:16:24;3.38;;;2.08;;
25479;SDS011;13393;49.378;8.686;2023-12-28T06:18:50;4.65;;;2.38;;
25479;SDS011;13393;49.378;8.686;2023-12-28T06:21:17;2.47;;;2.22;;
25479;SDS011;13393;49.378;8.686;2023-12-28T06:23:44;3.45;;;1.92;;
25479;SDS011;13393;49.378;8.686;2023-12-28T06:26:13;4.63;;;2.53;;
25479;SDS011;13393;49.378;8.686;2023-12-28T06:28:39;4.47;;;2.40;;
25479;SDS011;13393;49.378;8.686;2023-12-28T06:31:06;4.55;;;2.25;;
25479;SDS011;13393;49.378;8.686;2023-12-28T06:33:33;4.38;;;2.28;;
25479;SDS011;13393;49.378;8.686;2023-12-28T06:36:04;3.65;;;2.28;;
25479;SDS011;13393;49.378;8.686;2023-12-28T06:38:30;2.97;;;1.95;;
25479;SDS011;13393;49.378;8.686;2023-12-28T06:40:58;3.88;;;2.30;;
25479;SDS011;13393;49.378;8.686;2023-12-28T06:43:26;4.47;;;2.60;;
25479;SDS011;13393;49.378;8.686;2023-12-28T06:45:52;5.55;;;2.38;;
25479;SDS011;13393;49.378;8.686;2023-12-28T06:48:19;5.50;;;2.42;;
25479;SDS011;13393;49.378;8.686;2023-12-28T06:50:46;2.95;;;2.22;;
25479;SDS011;13393;49.378;8.686;2023-12-28T06:53:13;3.45;;;2.40;;
25479;SDS011;13393;49.378;8.686;2023-12-28T06:55:40;5.43;;;2.28;;
25479;SDS011;13393;49.378;8.686;2023-12-28T06:58:08;5.03;;;2.40;;
25479;SDS011;13393;49.378;8.686;2023-12-28T07:00:38;3.17;;;2.13;;
25479;SDS011;13393;49.378;8.686;2023-12-28T07:03:06;4.35;;;2.08;;
25479;SDS011;13393;49.378;8.686;2023-12-28T07:05:33;2.72;;;2.05;;
25479;SDS011;13393;49.378;8.686;2023-12-28T07:07:59;3.72;;;2.10;;
25479;SDS011;13393;49.378;8.686;2023-12-28T07:10:26;3.05;;;2.22;;
25479;SDS011;13393;49.378;8.686;2023-12-28T07:12:52;3.50;;;2.20;;
25479;SDS011;13393;49.378;8.686;2023-12-28T07:15:19;2.70;;;2.10;;
25479;SDS011;13393;49.378;8.686;2023-12-28T07:17:47;4.15;;;2.30;;
25479;SDS011;13393;49.378;8.686;2023-12-28T07:20:13;5.28;;;2.20;;
25479;SDS011;13393;49.378;8.686;2023-12-28T07:22:42;2.20;;;2.00;;
25479;SDS011;13393;49.378;8.686;2023-12-28T07:25:09;3.33;;;2.08;;
25479;SDS011;13393;49.378;8.686;2023-12-28T07:27:35;3.03;;;2.33;;
25479;SDS011;13393;49.378;8.686;2023-12-28T07:30:02;2.03;;;1.85;;
25479;SDS011;13393;49.378;8.686;2023-12-28T07:32:29;4.00;;;2.47;;
25479;SDS011;13393;49.378;8.686;2023-12-28T07:34:57;5.47;;;2.60;;
25479;SDS011;13393;49.378;8.686;2023-12-28T07:37:24;4.00;;;2.40;;
25479;SDS011;13393;49.378;8.686;2023-12-28T07:39:53;4.03;;;2.40;;
25479;SDS011;13393;49.378;8.686;2023-12-28T07:42:19;6.90;;;2.20;;
25479;SDS011;13393;49.378;8.686;2023-12-28T07:44:46;4.28;;;2.75;;
25479;SDS011;13393;49.378;8.686;2023-12-28T07:47:14;3.25;;;2.55;;
25479;SDS011;13393;49.378;8.686;2023-12-28T07:49:41;5.47;;;2.15;;
25479;SDS011;13393;49.378;8.686;2023-12-28T07:52:09;3.95;;;2.30;;
25479;SDS011;13393;49.378;8.686;2023-12-28T07:54:36;2.30;;;2.10;;
25479;SDS011;13393;49.378;8.686;2023-12-28T07:57:02;3.88;;;2.50;;
25479;SDS011;13393;49.378;8.686;2023-12-28T07:59:29;4.35;;;2.38;;
25479;SDS011;13393;49.378;8.686;2023-12-28T08:01:55;2.08;;;1.70;;
25479;SDS011;13393;49.378;8.686;2023-12-28T08:04:21;4.68;;;2.00;;
25479;SDS011;13393;49.378;8.686;2023-12-28T08:06:48;2.42;;;1.70;;
25479;SDS011;13393;49.378;8.686;2023-12-28T08:09:16;2.63;;;1.95;;
25479;SDS011;13393;49.378;8.686;2023-12-28T08:11:42;3.05;;;2.08;;
25479;SDS011;13393;49.378;8.686;2023-12-28T08:14:09;2.97;;;2.10;;
25479;SDS011;13393;49.378;8.686;2023-12-28T08:16:38;4.40;;;2.40;;
25479;SDS011;13393;49.378;8.686;2023-12-28T08:19:05;3.72;;;2.42;;
25479;SDS011;13393;49.378;8.686;2023-12-28T08:21:32;5.35;;;2.10;;
25479;SDS011;13393;49.378;8.686;2023-12-28T08:23:59;4.47;;;2.50;;
25479;SDS011;13393;49.378;8.686;2023-12-28T08:26:27;3.95;;;2.05;;
25479;SDS011;13393;49.378;8.686;2023-12-28T08:28:57;2.40;;;1.73;;
25479;SDS011;13393;49.378;8.686;2023-12-28T08:31:24;2.92;;;2.28;;
25479;SDS011;13393;49.378;8.686;2023-12-28T08:33:51;5.38;;;2.72;;
25479;SDS011;13393;49.378;8.686;2023-12-28T08:36:17;2.95;;;2.00;;
25479;SDS011;13393;49.378;8.686;2023-12-28T08:38:44;3.25;;;2.00;;
25479;SDS011;13393;49.378;8.686;2023-12-28T08:41:17;4.07;;;2.10;;
25479;SDS011;13393;49.378;8.686;2023-12-28T08:43:45;3.40;;;1.85;;
25479;SDS011;13393;49.378;8.686;2023-12-28T08:46:11;4.93;;;2.22;;
25479;SDS011;13393;49.378;8.686;2023-12-28T08:48:38;2.47;;;1.92;;
25479;SDS011;13393;49.378;8.686;2023-12-28T08:51:06;3.03;;;1.60;;
25479;SDS011;13393;49.378;8.686;2023-12-28T08:53:33;4.43;;;2.58;;
25479;SDS011;13393;49.378;8.686;2023-12-28T08:55:59;2.83;;;2.20;;
25479;SDS011;13393;49.378;8.686;2023-12-28T08:58:27;4.65;;;2.40;;
25479;SDS011;13393;49.378;8.686;2023-12-28T09:00:55;3.42;;;2.30;;
25479;SDS011;13393;49.378;8.686;2023-12-28T09:03:21;4.82;;;3.35;;
25479;SDS011;13393;49.378;8.686;2023-12-28T09:05:56;4.63;;;2.45;;
25479;SDS011;13393;49.378;8.686;2023-12-28T09:08:24;2.38;;;2.03;;
25479;SDS011;13393;49.378;8.686;2023-12-28T09:10:50;3.42;;;2.15;;
25479;SDS011;13393;49.378;8.686;2023-12-28T09:13:17;4.32;;;2.30;;
25479;SDS011;13393;49.378;8.686;2023-12-28T09:15:46;2.85;;;2.38;;
25479;SDS011;13393;49.378;8.686;2023-12-28T09:18:13;4.70;;;3.08;;
25479;SDS011;13393;49.378;8.686;2023-12-28T09:20:40;4.97;;;2.70;;
25479;SDS011;13393;49.378;8.686;2023-12-28T09:23:08;6.82;;;2.90;;
25479;SDS011;13393;49.378;8.686;2023-12-28T09:25:35;4.75;;;2.75;;
25479;SDS011;13393;49.378;8.686;2023-12-28T09:28:03;5.07;;;3.13;;
25479;SDS011;13393;49.378;8.686;2023-12-28T09:30:30;5.97;;;2.45;;
25479;SDS011;13393;49.378;8.686;2023-12-28T09:32:57;5.85;;;2.88;;
25479;SDS011;13393;49.378;8.686;2023-12-28T09:35:25;5.05;;;2.47;;
25479;SDS011;13393;49.378;8.686;2023-12-28T09:37:52;4.72;;;3.08;;
25479;SDS011;13393;49.378;8.686;2023-12-28T09:40:19;6.18;;;2.80;;
25479;SDS011;13393;49.378;8.686;2023-12-28T09:42:48;3.08;;;2.78;;
25479;SDS011;13393;49.378;8.686;2023-12-28T09:45:17;4.50;;;2.97;;
25479;SDS011;13393;49.378;8.686;2023-12-28T09:47:43;10.52;;;6.47;;
25479;SDS011;13393;49.378;8.686;2023-12-28T09:50:15;4.85;;;2.90;;
25479;SDS011;13393;49.378;8.686;2023-12-28T09:52:47;6.15;;;3.08;;
25479;SDS011;13393;49.378;8.686;2023-12-28T09:55:14;8.57;;;2.72;;
25479;SDS011;13393;49.378;8.686;2023-12-28T09:57:41;3.22;;;2.60;;
25479;SDS011;13393;49.378;8.686;2023-12-28T10:00:08;6.50;;;3.15;;
25479;SDS011;13393;49.378;8.686;2023-12-28T10:02:43;4.10;;;2.80;;
25479;SDS011;13393;49.378;8.686;2023-12-28T10:05:11;4.53;;;3.10;;
25479;SDS011;13393;49.378;8.686;2023-12-28T10:07:40;2.60;;;2.40;;
25479;SDS011;13393;49.378;8.686;2023-12-28T10:10:08;2.63;;;2.35;;
25479;SDS011;13393;49.378;8.686;2023-12-28T10:12:35;4.22;;;2.30;;
25479;SDS011;13393;49.378;8.686;2023-12-28T10:15:02;4.72;;;2.50;;
25479;SDS011;13393;49.378;8.686;2023-12-28T10:17:29;3.72;;;2.80;;
25479;SDS011;13393;49.378;8.686;2023-12-28T10:19:56;4.55;;;2.60;;
25479;SDS011;13393;49.378;8.686;2023-12-28T10:22:28;4.95;;;2.70;;
25479;SDS011;13393;49.378;8.686;2023-12-28T10:24:55;3.80;;;2.40;;
25479;SDS011;13393;49.378;8.686;2023-12-28T10:27:23;2.55;;;1.90;;
25479;SDS011;13393;49.378;8.686;2023-12-28T10:29:49;2.22;;;2.03;;
25479;SDS011;13393;49.378;8.686;2023-12-28T10:32:19;4.28;;;1.98;;
25479;SDS011;13393;49.378;8.686;2023-12-28T10:34:46;3.25;;;2.17;;
25479;SDS011;13393;49.378;8.686;2023-12-28T10:37:13;3.05;;;2.33;;
25479;SDS011;13393;49.378;8.686;2023-12-28T10:39:39;5.80;;;2.50;;
25479;SDS011;13393;49.378;8.686;2023-12-28T10:42:11;4.35;;;2.67;;
25479;SDS011;13393;49.378;8.686;2023-12-28T10:44:43;4.50;;;2.67;;
25479;SDS011;13393;49.378;8.686;2023-12-28T10:47:11;7.05;;;3.20;;
25479;SDS011;13393;49.378;8.686;2023-12-28T10:49:41;5.03;;;2.60;;
25479;SDS011;13393;49.378;8.686;2023-12-28T10:52:09;4.50;;;2.80;;
25479;SDS011;13393;49.378;8.686;2023-12-28T10:54:40;5.32;;;2.63;;
25479;SDS011;13393;49.378;8.686;2023-12-28T10:57:09;3.75;;;2.67;;
25479;SDS011;13393;49.378;8.686;2023-12-28T10:59:47;3.58;;;2.60;;
25479;SDS011;13393;49.378;8.686;2023-12-28T11:02:16;5.43;;;2.80;;
25479;SDS011;13393;49.378;8.686;2023-12-28T11:04:48;4.40;;;2.65;;
25479;SDS011;13393;49.378;8.686;2023-12-28T11:07:14;10.35;;;3.38;;
25479;SDS011;13393;49.378;8.686;2023-12-28T11:09:43;5.53;;;3.17;;
25479;SDS011;13393;49.378;8.686;2023-12-28T11:12:10;3.38;;;2.47;;
25479;SDS011;13393;49.378;8.686;2023-12-28T11:14:38;4.53;;;3.20;;
25479;SDS011;13393;49.378;8.686;2023-12-28T11:17:07;3.80;;;2.90;;
25479;SDS011;13393;49.378;8.686;2023-12-28T11:19:35;4.97;;;3.40;;
25479;SDS011;13393;49.378;8.686;2023-12-28T11:22:02;5.00;;;3.15;;
25479;SDS011;13393;49.378;8.686;2023-12-28T11:24:29;7.28;;;3.42;;
25479;SDS011;13393;49.378;8.686;2023-12-28T11:26:56;7.78;;;3.33;;
25479;SDS011;13393;49.378;8.686;2023-12-28T11:29:23;4.10;;;2.67;;
25479;SDS011;13393;49.378;8.686;2023-12-28T11:31:50;6.25;;;2.70;;
25479;SDS011;13393;49.378;8.686;2023-12-28T11:34:19;4.22;;;3.08;;
25479;SDS011;13393;49.378;8.686;2023-12-28T11:36:55;6.30;;;2.95;;
25479;SDS011;13393;49.378;8.686;2023-12-28T11:39:26;3.83;;;2.58;;
25479;SDS011;13393;49.378;8.686;2023-12-28T11:41:58;4.40;;;2.40;;
25479;SDS011;13393;49.378;8.686;2023-12-28T11:44:25;4.57;;;2.70;;
25479;SDS011;13393;49.378;8.686;2023-12-28T11:46:52;5.15;;;3.15;;
25479;SDS011;13393;49.378;8.686;2023-12-28T11:49:24;3.67;;;2.92;;
25479;SDS011;13393;49.378;8.686;2023-12-28T11:51:54;5.03;;;2.67;;
25479;SDS011;13393;49.378;8.686;2023-12-28T11:54:21;4.18;;;2.97;;
25479;SDS011;13393;49.378;8.686;2023-12-28T11:56:49;5.03;;;2.50;;
25479;SDS011;13393;49.378;8.686;2023-12-28T11:59:15;6.55;;;2.90;;
25479;SDS011;13393;49.378;8.686;2023-12-28T12:01:42;5.43;;;2.83;;
25479;SDS011;13393;49.378;8.686;2023-12-28T12:04:09;5.63;;;3.20;;
25479;SDS011;13393;49.378;8.686;2023-12-28T12:06:39;4.43;;;2.53;;
25479;SDS011;13393;49.378;8.686;2023-12-28T12:09:06;4.25;;;2.80;;
25479;SDS011;13393;49.378;8.686;2023-12-28T12:11:32;4.07;;;2.88;;
25479;SDS011;13393;49.378;8.686;2023-12-28T12:13:59;4.15;;;2.70;;
25479;SDS011;13393;49.378;8.686;2023-12-28T12:16:25;4.10;;;2.53;;
25479;SDS011;13393;49.378;8.686;2023-12-28T12:18:52;5.10;;;2.67;;
25479;SDS011;13393;49.378;8.686;2023-12-28T12:21:23;2.90;;;2.60;;
25479;SDS011;13393;49.378;8.686;2023-12-28T12:23:53;3.78;;;2.90;;
25479;SDS011;13393;49.378;8.686;2023-12-28T12:26:21;5.80;;;3.08;;
25479;SDS011;13393;49.378;8.686;2023-12-28T12:28:48;5.15;;;2.60;;
25479;SDS011;13393;49.378;8.686;2023-12-28T12:31:14;6.63;;;3.50;;
25479;SDS011;13393;49.378;8.686;2023-12-28T12:33:41;4.38;;;2.72;;
25479;SDS011;13393;49.378;8.686;2023-12-28T12:36:08;7.50;;;3.05;;
25479;SDS011;13393;49.378;8.686;2023-12-28T12:38:34;6.53;;;3.30;;
25479;SDS011;13393;49.378;8.686;2023-12-28T12:41:02;5.55;;;3.70;;
25479;SDS011;13393;49.378;8.686;2023-12-28T12:43:29;5.40;;;3.70;;
25479;SDS011;13393;49.378;8.686;2023-12-28T12:45:56;4.03;;;3.15;;
25479;SDS011;13393;49.378;8.686;2023-12-28T12:48:23;6.22;;;3.20;;
25479;SDS011;13393;49.378;8.686;2023-12-28T12:50:49;5.22;;;3.28;;
25479;SDS011;13393;49.378;8.686;2023-12-28T12:53:16;4.57;;;2.83;;
25479;SDS011;13393;49.378;8.686;2023-12-28T12:55:43;4.72;;;3.08;;
25479;SDS011;13393;49.378;8.686;2023-12-28T12:58:15;4.65;;;3.15;;
25479;SDS011;13393;49.378;8.686;2023-12-28T13:00:42;4.55;;;3.10;;
25479;SDS011;13393;49.378;8.686;2023-12-28T13:03:11;5.22;;;3.15;;
25479;SDS011;13393;49.378;8.686;2023-12-28T13:05:37;5.95;;;4.75;;
25479;SDS011;13393;49.378;8.686;2023-12-28T13:08:04;3.85;;;2.97;;
25479;SDS011;13393;49.378;8.686;2023-12-28T13:10:30;4.80;;;2.88;;
25479;SDS011;13393;49.378;8.686;2023-12-28T13:12:57;5.20;;;3.22;;
25479;SDS011;13393;49.378;8.686;2023-12-28T13:15:28;3.63;;;2.90;;
25479;SDS011;13393;49.378;8.686;2023-12-28T13:17:54;3.17;;;2.88;;
25479;SDS011;13393;49.378;8.686;2023-12-28T13:20:21;3.80;;;3.05;;
25479;SDS011;13393;49.378;8.686;2023-12-28T13:22:48;7.35;;;3.20;;
25479;SDS011;13393;49.378;8.686;2023-12-28T13:25:15;4.20;;;3.15;;
25479;SDS011;13393;49.378;8.686;2023-12-28T13:27:42;3.97;;;3.50;;
25479;SDS011;13393;49.378;8.686;2023-12-28T13:30:09;3.53;;;3.08;;
25479;SDS011;13393;49.378;8.686;2023-12-28T13:32:38;4.85;;;3.53;;
25479;SDS011;13393;49.378;8.686;2023-12-28T13:35:05;4.55;;;3.50;;
25479;SDS011;13393;49.378;8.686;2023-12-28T13:37:32;4.85;;;3.40;;
25479;SDS011;13393;49.378;8.686;2023-12-28T13:40:01;3.60;;;3.15;;
25479;SDS011;13393;49.378;8.686;2023-12-28T13:42:27;3.70;;;2.95;;
25479;SDS011;13393;49.378;8.686;2023-12-28T13:44:55;3.13;;;2.83;;
25479;SDS011;13393;49.378;8.686;2023-12-28T13:47:22;5.25;;;3.47;;
25479;SDS011;13393;49.378;8.686;2023-12-28T13:49:50;5.85;;;3.42;;
25479;SDS011;13393;49.378;8.686;2023-12-28T13:52:16;3.92;;;3.40;;
25479;SDS011;13393;49.378;8.686;2023-12-28T13:54:43;3.72;;;3.20;;
25479;SDS011;13393;49.378;8.686;2023-12-28T13:57:10;7.20;;;3.50;;
25479;SDS011;13393;49.378;8.686;2023-12-28T13:59:36;3.88;;;3.10;;
25479;SDS011;13393;49.378;8.686;2023-12-28T14:02:03;5.22;;;3.58;;
25479;SDS011;13393;49.378;8.686;2023-12-28T14:04:30;5.45;;;3.72;;
25479;SDS011;13393;49.378;8.686;2023-12-28T14:06:58;4.55;;;3.40;;
25479;SDS011;13393;49.378;8.686;2023-12-28T14:09:24;4.75;;;3.47;;
25479;SDS011;13393;49.378;8.686;2023-12-28T14:11:52;4.82;;;3.25;;
25479;SDS011;13393;49.378;8.686;2023-12-28T14:14:18;4.53;;;3.60;;
25479;SDS011;13393;49.378;8.686;2023-12-28T14:16:45;5.43;;;3.55;;
25479;SDS011;13393;49.378;8.686;2023-12-28T14:19:12;5.03;;;3.70;;
25479;SDS011;13393;49.378;8.686;2023-12-28T14:21:39;6.10;;;4.03;;
25479;SDS011;13393;49.378;8.686;2023-12-28T14:24:08;5.40;;;3.90;;
25479;SDS011;13393;49.378;8.686;2023-12-28T14:26:34;4.88;;;3.55;;
25479;SDS011;13393;49.378;8.686;2023-12-28T14:29:06;4.53;;;3.83;;
25479;SDS011;13393;49.378;8.686;2023-12-28T14:31:33;5.65;;;3.97;;
25479;SDS011;13393;49.378;8.686;2023-12-28T14:34:00;5.55;;;4.00;;
25479;SDS011;13393;49.378;8.686;2023-12-28T14:36:29;4.60;;;3.58;;
25479;SDS011;13393;49.378;8.686;2023-12-28T14:38:57;7.80;;;4.10;;
25479;SDS011;13393;49.378;8.686;2023-12-28T14:41:25;6.43;;;3.83;;
25479;SDS011;13393;49.378;8.686;2023-12-28T14:43:52;6.78;;;4.18;;
25479;SDS011;13393;49.378;8.686;2023-12-28T14:46:20;5.72;;;3.45;;
25479;SDS011;13393;49.378;8.686;2023-12-28T14:48:46;5.53;;;3.22;;